sensor_id;sensor_type;location;lat;lon;timestamp;temperature;humidity
9223;DHT22;7557;51.698;3.942;2023-01-01T00:01:47;14.30;99.90
9223;DHT22;7557;51.698;3.942;2023-01-01T00:04:14;14.30;99.90
9223;DHT22;7557;51.698;3.942;2023-01-01T00:06:42;14.30;99.90
9223;DHT22;7557;51.698;3.942;2023-01-01T00:09:11;14.30;99.90
9223;DHT22;7557;51.698;3.942;2023-01-01T00:11:55;14.30;99.90
9223;DHT22;7557;51.698;3.942;2023-01-01T00:14:23;14.30;99.90
9223;DHT22;7557;51.698;3.942;2023-01-01T00:16:53;14.30;99.90
9223;DHT22;7557;51.698;3.942;2023-01-01T00:19:20;14.30;99.90
9223;DHT22;7557;51.698;3.942;2023-01-01T00:21:47;14.30;99.90
9223;DHT22;7557;51.698;3.942;2023-01-01T00:24:15;14.40;99.90
9223;DHT22;7557;51.698;3.942;2023-01-01T00:26:42;14.40;99.90
9223;DHT22;7557;51.698;3.942;2023-01-01T00:29:09;14.40;99.90
9223;DHT22;7557;51.698;3.942;2023-01-01T00:31:38;14.40;99.90
9223;DHT22;7557;51.698;3.942;2023-01-01T00:34:05;14.40;99.90
9223;DHT22;7557;51.698;3.942;2023-01-01T00:36:32;14.50;99.90
9223;DHT22;7557;51.698;3.942;2023-01-01T00:39:00;14.40;99.90
9223;DHT22;7557;51.698;3.942;2023-01-01T00:41:28;14.40;99.90
9223;DHT22;7557;51.698;3.942;2023-01-01T00:43:55;14.40;99.90
9223;DHT22;7557;51.698;3.942;2023-01-01T00:46:22;14.40;99.90
9223;DHT22;7557;51.698;3.942;2023-01-01T00:48:50;14.40;99.90
9223;DHT22;7557;51.698;3.942;2023-01-01T00:54:25;14.40;99.90
9223;DHT22;7557;51.698;3.942;2023-01-01T00:56:52;14.30;99.90
9223;DHT22;7557;51.698;3.942;2023-01-01T00:59:20;14.30;99.90
9223;DHT22;7557;51.698;3.942;2023-01-01T01:01:47;14.30;99.90
9223;DHT22;7557;51.698;3.942;2023-01-01T01:04:16;14.30;99.90
9223;DHT22;7557;51.698;3.942;2023-01-01T01:06:43;14.30;99.90
9223;DHT22;7557;51.698;3.942;2023-01-01T01:09:10;14.30;99.90
9223;DHT22;7557;51.698;3.942;2023-01-01T01:11:37;14.30;99.90
9223;DHT22;7557;51.698;3.942;2023-01-01T01:14:04;14.30;99.90
9223;DHT22;7557;51.698;3.942;2023-01-01T01:16:33;14.30;99.90
9223;DHT22;7557;51.698;3.942;2023-01-01T01:19:02;14.20;99.90
9223;DHT22;7557;51.698;3.942;2023-01-01T01:21:33;14.20;99.90
9223;DHT22;7557;51.698;3.942;2023-01-01T01:24:02;14.20;99.90
9223;DHT22;7557;51.698;3.942;2023-01-01T01:26:31;14.20;99.90
9223;DHT22;7557;51.698;3.942;2023-01-01T01:28:58;14.20;99.90
9223;DHT22;7557;51.698;3.942;2023-01-01T01:31:28;14.20;99.90
9223;DHT22;7557;51.698;3.942;2023-01-01T01:33:55;14.10;99.90
9223;DHT22;7557;51.698;3.942;2023-01-01T01:36:24;14.10;99.90
9223;DHT22;7557;51.698;3.942;2023-01-01T01:38:53;14.10;99.90
9223;DHT22;7557;51.698;3.942;2023-01-01T01:41:22;14.10;99.90
9223;DHT22;7557;51.698;3.942;2023-01-01T01:43:52;14.10;99.90
9223;DHT22;7557;51.698;3.942;2023-01-01T01:46:24;14.20;99.90
9223;DHT22;7557;51.698;3.942;2023-01-01T01:48:54;14.20;99.90
9223;DHT22;7557;51.698;3.942;2023-01-01T01:51:25;14.20;99.90
9223;DHT22;7557;51.698;3.942;2023-01-01T01:53:58;14.20;99.90
9223;DHT22;7557;51.698;3.942;2023-01-01T01:56:30;14.20;99.90
9223;DHT22;7557;51.698;3.942;2023-01-01T01:59:02;14.20;99.90
9223;DHT22;7557;51.698;3.942;2023-01-01T02:01:29;14.20;99.90
9223;DHT22;7557;51.698;3.942;2023-01-01T02:03:57;14.20;99.90
9223;DHT22;7557;51.698;3.942;2023-01-01T02:06:26;14.20;99.90
9223;DHT22;7557;51.698;3.942;2023-01-01T02:08:56;14.20;99.90
9223;DHT22;7557;51.698;3.942;2023-01-01T02:11:24;14.20;99.90
9223;DHT22;7557;51.698;3.942;2023-01-01T02:13:52;14.10;99.90
9223;DHT22;7557;51.698;3.942;2023-01-01T02:16:22;14.10;99.90
9223;DHT22;7557;51.698;3.942;2023-01-01T02:18:56;14.10;99.90
9223;DHT22;7557;51.698;3.942;2023-01-01T02:21:29;14.10;99.90
9223;DHT22;7557;51.698;3.942;2023-01-01T02:24:18;14.20;99.90
9223;DHT22;7557;51.698;3.942;2023-01-01T02:26:53;14.10;99.90
9223;DHT22;7557;51.698;3.942;2023-01-01T02:29:29;14.10;99.90
9223;DHT22;7557;51.698;3.942;2023-01-01T02:32:01;14.10;99.90
9223;DHT22;7557;51.698;3.942;2023-01-01T02:34:33;14.10;99.90
9223;DHT22;7557;51.698;3.942;2023-01-01T02:37:04;14.20;99.90
9223;DHT22;7557;51.698;3.942;2023-01-01T02:39:36;14.10;99.90
9223;DHT22;7557;51.698;3.942;2023-01-01T02:42:05;14.10;99.90
9223;DHT22;7557;51.698;3.942;2023-01-01T02:44:38;14.20;99.90
9223;DHT22;7557;51.698;3.942;2023-01-01T02:47:10;14.20;99.90
9223;DHT22;7557;51.698;3.942;2023-01-01T02:49:45;14.10;99.90
9223;DHT22;7557;51.698;3.942;2023-01-01T02:52:27;14.20;99.90
9223;DHT22;7557;51.698;3.942;2023-01-01T02:55:03;14.20;99.90
9223;DHT22;7557;51.698;3.942;2023-01-01T02:57:36;14.20;99.90
9223;DHT22;7557;51.698;3.942;2023-01-01T03:00:08;14.20;99.90
9223;DHT22;7557;51.698;3.942;2023-01-01T03:03:00;14.20;99.90
9223;DHT22;7557;51.698;3.942;2023-01-01T03:05:39;14.20;99.90
9223;DHT22;7557;51.698;3.942;2023-01-01T03:08:32;14.10;99.90
9223;DHT22;7557;51.698;3.942;2023-01-01T03:11:09;14.00;99.90
9223;DHT22;7557;51.698;3.942;2023-01-01T03:13:41;13.90;99.90
9223;DHT22;7557;51.698;3.942;2023-01-01T03:16:17;13.80;99.90
9223;DHT22;7557;51.698;3.942;2023-01-01T03:18:53;13.80;99.90
9223;DHT22;7557;51.698;3.942;2023-01-01T03:21:40;13.70;99.90
9223;DHT22;7557;51.698;3.942;2023-01-01T03:24:11;13.60;99.90
9223;DHT22;7557;51.698;3.942;2023-01-01T03:26:40;13.50;99.90
9223;DHT22;7557;51.698;3.942;2023-01-01T03:29:11;13.40;99.90
9223;DHT22;7557;51.698;3.942;2023-01-01T03:31:43;13.30;99.90
9223;DHT22;7557;51.698;3.942;2023-01-01T03:34:15;13.30;99.90
9223;DHT22;7557;51.698;3.942;2023-01-01T03:36:46;13.20;99.90
9223;DHT22;7557;51.698;3.942;2023-01-01T03:39:17;13.10;99.90
9223;DHT22;7557;51.698;3.942;2023-01-01T03:41:48;13.10;99.90
9223;DHT22;7557;51.698;3.942;2023-01-01T03:44:22;13.00;99.90
9223;DHT22;7557;51.698;3.942;2023-01-01T03:46:52;13.00;99.90
9223;DHT22;7557;51.698;3.942;2023-01-01T03:49:20;13.00;99.90
9223;DHT22;7557;51.698;3.942;2023-01-01T03:52:04;12.90;99.90
9223;DHT22;7557;51.698;3.942;2023-01-01T03:54:44;12.90;99.90
9223;DHT22;7557;51.698;3.942;2023-01-01T03:57:19;12.80;99.90
9223;DHT22;7557;51.698;3.942;2023-01-01T03:59:52;12.80;99.90
9223;DHT22;7557;51.698;3.942;2023-01-01T04:02:27;12.80;99.90
9223;DHT22;7557;51.698;3.942;2023-01-01T04:04:59;12.80;99.90
9223;DHT22;7557;51.698;3.942;2023-01-01T04:07:28;12.70;99.90
9223;DHT22;7557;51.698;3.942;2023-01-01T04:09:59;12.70;99.90
9223;DHT22;7557;51.698;3.942;2023-01-01T04:12:28;12.70;99.90
9223;DHT22;7557;51.698;3.942;2023-01-01T04:14:55;12.70;99.90
9223;DHT22;7557;51.698;3.942;2023-01-01T04:17:24;12.70;99.90
9223;DHT22;7557;51.698;3.942;2023-01-01T04:19:51;12.70;99.90
9223;DHT22;7557;51.698;3.942;2023-01-01T04:22:18;12.70;99.90
9223;DHT22;7557;51.698;3.942;2023-01-01T04:24:47;12.70;99.90
9223;DHT22;7557;51.698;3.942;2023-01-01T04:27:15;12.70;99.90
9223;DHT22;7557;51.698;3.942;2023-01-01T04:29:42;12.70;99.90
9223;DHT22;7557;51.698;3.942;2023-01-01T04:32:09;12.70;99.90
9223;DHT22;7557;51.698;3.942;2023-01-01T04:34:38;12.70;99.90
9223;DHT22;7557;51.698;3.942;2023-01-01T04:37:05;12.70;99.90
9223;DHT22;7557;51.698;3.942;2023-01-01T04:39:32;12.70;99.90
9223;DHT22;7557;51.698;3.942;2023-01-01T04:41:59;12.70;99.90
9223;DHT22;7557;51.698;3.942;2023-01-01T04:44:26;12.70;99.90
9223;DHT22;7557;51.698;3.942;2023-01-01T04:46:53;12.60;99.90
9223;DHT22;7557;51.698;3.942;2023-01-01T04:49:21;12.60;99.90
9223;DHT22;7557;51.698;3.942;2023-01-01T04:51:49;12.60;99.90
9223;DHT22;7557;51.698;3.942;2023-01-01T04:54:16;12.60;99.90
9223;DHT22;7557;51.698;3.942;2023-01-01T04:56:44;12.60;99.90
9223;DHT22;7557;51.698;3.942;2023-01-01T04:59:11;12.60;99.90
9223;DHT22;7557;51.698;3.942;2023-01-01T05:01:38;12.60;99.90
9223;DHT22;7557;51.698;3.942;2023-01-01T05:04:05;12.60;99.90
9223;DHT22;7557;51.698;3.942;2023-01-01T05:06:33;12.60;99.90
9223;DHT22;7557;51.698;3.942;2023-01-01T05:09:01;12.60;99.90
9223;DHT22;7557;51.698;3.942;2023-01-01T05:11:29;12.50;99.90
9223;DHT22;7557;51.698;3.942;2023-01-01T05:13:58;12.50;99.90
9223;DHT22;7557;51.698;3.942;2023-01-01T05:16:27;12.50;99.90
9223;DHT22;7557;51.698;3.942;2023-01-01T05:18:55;12.50;99.90
9223;DHT22;7557;51.698;3.942;2023-01-01T05:21:24;12.40;99.90
9223;DHT22;7557;51.698;3.942;2023-01-01T05:23:53;12.40;99.90
9223;DHT22;7557;51.698;3.942;2023-01-01T05:26:23;12.40;99.90
9223;DHT22;7557;51.698;3.942;2023-01-01T05:28:51;12.40;99.90
9223;DHT22;7557;51.698;3.942;2023-01-01T05:31:20;12.40;99.90
9223;DHT22;7557;51.698;3.942;2023-01-01T05:33:48;12.40;99.90
9223;DHT22;7557;51.698;3.942;2023-01-01T05:36:17;12.40;99.90
9223;DHT22;7557;51.698;3.942;2023-01-01T05:38:45;12.30;99.90
9223;DHT22;7557;51.698;3.942;2023-01-01T05:41:13;12.30;99.90
9223;DHT22;7557;51.698;3.942;2023-01-01T05:43:42;12.30;99.90
9223;DHT22;7557;51.698;3.942;2023-01-01T05:46:12;12.30;99.90
9223;DHT22;7557;51.698;3.942;2023-01-01T05:49:12;12.20;99.90
9223;DHT22;7557;51.698;3.942;2023-01-01T05:51:40;12.20;99.90
9223;DHT22;7557;51.698;3.942;2023-01-01T05:54:09;12.20;99.90
9223;DHT22;7557;51.698;3.942;2023-01-01T05:56:36;12.20;99.90
9223;DHT22;7557;51.698;3.942;2023-01-01T05:59:04;12.20;99.90
9223;DHT22;7557;51.698;3.942;2023-01-01T06:01:32;12.30;99.90
9223;DHT22;7557;51.698;3.942;2023-01-01T06:03:59;12.20;99.90
9223;DHT22;7557;51.698;3.942;2023-01-01T06:06:29;12.20;99.90
9223;DHT22;7557;51.698;3.942;2023-01-01T06:08:59;12.20;99.90
9223;DHT22;7557;51.698;3.942;2023-01-01T06:11:27;12.20;99.90
9223;DHT22;7557;51.698;3.942;2023-01-01T06:13:55;12.20;99.90
9223;DHT22;7557;51.698;3.942;2023-01-01T06:16:26;12.20;99.90
9223;DHT22;7557;51.698;3.942;2023-01-01T06:18:53;12.20;99.90
9223;DHT22;7557;51.698;3.942;2023-01-01T06:21:22;12.10;99.90
9223;DHT22;7557;51.698;3.942;2023-01-01T06:23:50;12.10;99.90
9223;DHT22;7557;51.698;3.942;2023-01-01T06:26:18;12.10;99.90
9223;DHT22;7557;51.698;3.942;2023-01-01T06:28:46;12.10;99.90
9223;DHT22;7557;51.698;3.942;2023-01-01T06:31:18;12.10;99.90
9223;DHT22;7557;51.698;3.942;2023-01-01T06:33:47;12.00;99.90
9223;DHT22;7557;51.698;3.942;2023-01-01T06:36:17;12.00;99.90
9223;DHT22;7557;51.698;3.942;2023-01-01T06:38:45;12.00;99.90
9223;DHT22;7557;51.698;3.942;2023-01-01T06:41:15;12.00;99.90
9223;DHT22;7557;51.698;3.942;2023-01-01T06:43:43;12.00;99.90
9223;DHT22;7557;51.698;3.942;2023-01-01T06:46:15;12.00;99.90
9223;DHT22;7557;51.698;3.942;2023-01-01T06:48:42;12.00;99.90
9223;DHT22;7557;51.698;3.942;2023-01-01T06:51:15;12.00;99.90
9223;DHT22;7557;51.698;3.942;2023-01-01T06:53:42;12.00;99.90
9223;DHT22;7557;51.698;3.942;2023-01-01T06:56:10;12.00;99.90
9223;DHT22;7557;51.698;3.942;2023-01-01T06:58:37;11.90;99.90
9223;DHT22;7557;51.698;3.942;2023-01-01T07:01:05;11.90;99.90
9223;DHT22;7557;51.698;3.942;2023-01-01T07:03:33;11.90;99.90
9223;DHT22;7557;51.698;3.942;2023-01-01T07:06:00;11.90;99.90
9223;DHT22;7557;51.698;3.942;2023-01-01T07:08:29;11.90;99.90
9223;DHT22;7557;51.698;3.942;2023-01-01T07:10:56;11.80;99.90
9223;DHT22;7557;51.698;3.942;2023-01-01T07:13:23;11.80;99.90
9223;DHT22;7557;51.698;3.942;2023-01-01T07:15:51;11.80;99.90
9223;DHT22;7557;51.698;3.942;2023-01-01T07:18:18;11.80;99.90
9223;DHT22;7557;51.698;3.942;2023-01-01T07:20:48;11.70;99.90
9223;DHT22;7557;51.698;3.942;2023-01-01T07:23:15;11.70;99.90
9223;DHT22;7557;51.698;3.942;2023-01-01T07:25:44;11.70;99.90
9223;DHT22;7557;51.698;3.942;2023-01-01T07:28:11;11.70;99.90
9223;DHT22;7557;51.698;3.942;2023-01-01T07:30:39;11.70;99.90
9223;DHT22;7557;51.698;3.942;2023-01-01T07:33:10;11.70;99.90
9223;DHT22;7557;51.698;3.942;2023-01-01T07:35:38;11.70;99.90
9223;DHT22;7557;51.698;3.942;2023-01-01T07:38:05;11.70;99.90
9223;DHT22;7557;51.698;3.942;2023-01-01T07:40:33;11.70;99.90
9223;DHT22;7557;51.698;3.942;2023-01-01T07:43:02;11.70;99.90
9223;DHT22;7557;51.698;3.942;2023-01-01T07:45:29;11.60;99.90
9223;DHT22;7557;51.698;3.942;2023-01-01T07:47:57;11.60;99.90
9223;DHT22;7557;51.698;3.942;2023-01-01T07:50:27;11.60;99.90
9223;DHT22;7557;51.698;3.942;2023-01-01T07:52:54;11.60;99.90
9223;DHT22;7557;51.698;3.942;2023-01-01T07:55:21;11.60;99.90
9223;DHT22;7557;51.698;3.942;2023-01-01T07:57:49;11.60;99.90
9223;DHT22;7557;51.698;3.942;2023-01-01T08:00:19;11.60;99.90
9223;DHT22;7557;51.698;3.942;2023-01-01T08:02:47;11.60;99.90
9223;DHT22;7557;51.698;3.942;2023-01-01T08:05:14;11.60;99.90
9223;DHT22;7557;51.698;3.942;2023-01-01T08:07:45;11.60;99.90
9223;DHT22;7557;51.698;3.942;2023-01-01T08:10:13;11.60;99.90
9223;DHT22;7557;51.698;3.942;2023-01-01T08:12:40;11.60;99.90
9223;DHT22;7557;51.698;3.942;2023-01-01T08:15:08;11.50;99.90
9223;DHT22;7557;51.698;3.942;2023-01-01T08:17:37;11.50;99.90
9223;DHT22;7557;51.698;3.942;2023-01-01T08:20:06;11.60;99.90
9223;DHT22;7557;51.698;3.942;2023-01-01T08:22:33;11.50;99.90
9223;DHT22;7557;51.698;3.942;2023-01-01T08:25:00;11.50;99.90
9223;DHT22;7557;51.698;3.942;2023-01-01T08:27:27;11.50;99.90
9223;DHT22;7557;51.698;3.942;2023-01-01T08:29:54;11.50;99.90
9223;DHT22;7557;51.698;3.942;2023-01-01T08:32:22;11.50;99.90
9223;DHT22;7557;51.698;3.942;2023-01-01T08:34:50;11.50;99.90
9223;DHT22;7557;51.698;3.942;2023-01-01T08:37:18;11.50;99.90
9223;DHT22;7557;51.698;3.942;2023-01-01T08:39:48;11.50;99.90
9223;DHT22;7557;51.698;3.942;2023-01-01T08:42:15;11.50;99.90
9223;DHT22;7557;51.698;3.942;2023-01-01T08:44:43;11.50;99.90
9223;DHT22;7557;51.698;3.942;2023-01-01T08:47:19;11.50;99.90
9223;DHT22;7557;51.698;3.942;2023-01-01T08:49:46;11.60;99.90
9223;DHT22;7557;51.698;3.942;2023-01-01T08:52:15;11.60;99.90
9223;DHT22;7557;51.698;3.942;2023-01-01T08:54:42;11.60;99.90
9223;DHT22;7557;51.698;3.942;2023-01-01T08:57:10;11.60;99.90
9223;DHT22;7557;51.698;3.942;2023-01-01T08:59:37;11.60;99.90
9223;DHT22;7557;51.698;3.942;2023-01-01T09:02:05;11.60;99.90
9223;DHT22;7557;51.698;3.942;2023-01-01T09:04:33;11.60;99.90
9223;DHT22;7557;51.698;3.942;2023-01-01T09:07:00;11.60;99.90
9223;DHT22;7557;51.698;3.942;2023-01-01T09:09:29;11.60;99.90
9223;DHT22;7557;51.698;3.942;2023-01-01T09:11:57;11.60;99.90
9223;DHT22;7557;51.698;3.942;2023-01-01T09:14:28;11.60;99.90
9223;DHT22;7557;51.698;3.942;2023-01-01T09:16:56;11.70;99.90
9223;DHT22;7557;51.698;3.942;2023-01-01T09:19:24;11.70;99.90
9223;DHT22;7557;51.698;3.942;2023-01-01T09:21:51;11.70;99.90
9223;DHT22;7557;51.698;3.942;2023-01-01T09:24:18;11.80;99.90
9223;DHT22;7557;51.698;3.942;2023-01-01T09:26:47;11.90;99.90
9223;DHT22;7557;51.698;3.942;2023-01-01T09:29:14;12.00;99.90
9223;DHT22;7557;51.698;3.942;2023-01-01T09:31:45;12.00;99.90
9223;DHT22;7557;51.698;3.942;2023-01-01T09:34:13;12.10;99.90
9223;DHT22;7557;51.698;3.942;2023-01-01T09:36:41;12.30;99.90
9223;DHT22;7557;51.698;3.942;2023-01-01T09:39:10;12.40;99.90
9223;DHT22;7557;51.698;3.942;2023-01-01T09:42:01;12.50;99.90
9223;DHT22;7557;51.698;3.942;2023-01-01T09:47:33;12.50;99.90
9223;DHT22;7557;51.698;3.942;2023-01-01T09:50:05;12.50;99.90
9223;DHT22;7557;51.698;3.942;2023-01-01T09:52:40;12.50;99.90
9223;DHT22;7557;51.698;3.942;2023-01-01T09:55:18;12.50;99.90
9223;DHT22;7557;51.698;3.942;2023-01-01T09:57:48;12.50;99.90
9223;DHT22;7557;51.698;3.942;2023-01-01T10:00:17;12.50;99.90
9223;DHT22;7557;51.698;3.942;2023-01-01T10:03:00;12.50;99.90
9223;DHT22;7557;51.698;3.942;2023-01-01T10:05:36;12.50;99.90
9223;DHT22;7557;51.698;3.942;2023-01-01T10:08:09;12.60;99.90
9223;DHT22;7557;51.698;3.942;2023-01-01T10:10:45;12.70;99.90
9223;DHT22;7557;51.698;3.942;2023-01-01T10:13:22;12.80;99.90
9223;DHT22;7557;51.698;3.942;2023-01-01T10:15:55;12.90;99.90
9223;DHT22;7557;51.698;3.942;2023-01-01T10:18:26;13.00;99.90
9223;DHT22;7557;51.698;3.942;2023-01-01T10:21:01;13.00;99.90
9223;DHT22;7557;51.698;3.942;2023-01-01T10:23:40;13.00;99.90
9223;DHT22;7557;51.698;3.942;2023-01-01T10:26:12;13.00;99.90
9223;DHT22;7557;51.698;3.942;2023-01-01T10:28:48;12.90;99.90
9223;DHT22;7557;51.698;3.942;2023-01-01T10:31:19;12.90;99.90
9223;DHT22;7557;51.698;3.942;2023-01-01T10:33:46;12.90;99.90
9223;DHT22;7557;51.698;3.942;2023-01-01T10:36:16;12.90;99.90
9223;DHT22;7557;51.698;3.942;2023-01-01T10:38:46;12.80;99.90
9223;DHT22;7557;51.698;3.942;2023-01-01T10:41:13;12.80;99.90
9223;DHT22;7557;51.698;3.942;2023-01-01T10:43:43;12.90;99.90
9223;DHT22;7557;51.698;3.942;2023-01-01T10:46:13;12.90;99.90
9223;DHT22;7557;51.698;3.942;2023-01-01T10:49:03;12.90;99.90
9223;DHT22;7557;51.698;3.942;2023-01-01T10:51:30;12.90;99.90
9223;DHT22;7557;51.698;3.942;2023-01-01T10:53:58;12.90;99.90
9223;DHT22;7557;51.698;3.942;2023-01-01T10:56:38;12.90;99.90
9223;DHT22;7557;51.698;3.942;2023-01-01T10:59:31;12.90;99.90
9223;DHT22;7557;51.698;3.942;2023-01-01T11:02:17;12.90;99.90
9223;DHT22;7557;51.698;3.942;2023-01-01T11:04:44;12.80;99.90
9223;DHT22;7557;51.698;3.942;2023-01-01T11:07:18;12.80;99.90
9223;DHT22;7557;51.698;3.942;2023-01-01T11:09:48;12.80;99.90
9223;DHT22;7557;51.698;3.942;2023-01-01T11:12:21;12.80;99.90
9223;DHT22;7557;51.698;3.942;2023-01-01T11:14:53;12.70;99.90
9223;DHT22;7557;51.698;3.942;2023-01-01T11:17:21;12.70;99.90
9223;DHT22;7557;51.698;3.942;2023-01-01T11:19:50;12.70;99.90
9223;DHT22;7557;51.698;3.942;2023-01-01T11:22:36;12.70;99.90
9223;DHT22;7557;51.698;3.942;2023-01-01T11:25:16;12.70;99.90
9223;DHT22;7557;51.698;3.942;2023-01-01T11:27:43;12.70;99.90
9223;DHT22;7557;51.698;3.942;2023-01-01T11:30:22;12.70;99.90
9223;DHT22;7557;51.698;3.942;2023-01-01T11:32:52;12.70;99.90
9223;DHT22;7557;51.698;3.942;2023-01-01T11:35:22;12.70;99.90
9223;DHT22;7557;51.698;3.942;2023-01-01T11:37:50;12.70;99.90
9223;DHT22;7557;51.698;3.942;2023-01-01T11:40:20;12.70;99.90
9223;DHT22;7557;51.698;3.942;2023-01-01T11:42:50;12.70;99.90
9223;DHT22;7557;51.698;3.942;2023-01-01T11:45:21;12.70;99.90
9223;DHT22;7557;51.698;3.942;2023-01-01T11:47:52;12.70;99.90
9223;DHT22;7557;51.698;3.942;2023-01-01T11:50:25;12.70;99.90
9223;DHT22;7557;51.698;3.942;2023-01-01T11:52:53;12.70;99.90
9223;DHT22;7557;51.698;3.942;2023-01-01T11:55:34;12.70;99.90
9223;DHT22;7557;51.698;3.942;2023-01-01T11:58:11;12.70;99.90
9223;DHT22;7557;51.698;3.942;2023-01-01T12:00:42;12.70;99.90
9223;DHT22;7557;51.698;3.942;2023-01-01T12:03:16;12.70;99.90
9223;DHT22;7557;51.698;3.942;2023-01-01T12:05:49;12.80;99.90
9223;DHT22;7557;51.698;3.942;2023-01-01T12:08:25;12.70;99.90
9223;DHT22;7557;51.698;3.942;2023-01-01T12:10:58;12.70;99.90
9223;DHT22;7557;51.698;3.942;2023-01-01T12:13:29;12.80;99.90
9223;DHT22;7557;51.698;3.942;2023-01-01T12:16:07;12.80;99.90
9223;DHT22;7557;51.698;3.942;2023-01-01T12:18:39;12.80;99.90
9223;DHT22;7557;51.698;3.942;2023-01-01T12:21:14;12.80;99.90
9223;DHT22;7557;51.698;3.942;2023-01-01T12:23:43;12.80;99.90
9223;DHT22;7557;51.698;3.942;2023-01-01T12:26:16;12.90;99.90
9223;DHT22;7557;51.698;3.942;2023-01-01T12:29:07;12.90;99.90
9223;DHT22;7557;51.698;3.942;2023-01-01T12:31:43;12.90;99.90
9223;DHT22;7557;51.698;3.942;2023-01-01T12:34:16;12.80;99.90
9223;DHT22;7557;51.698;3.942;2023-01-01T12:36:52;12.80;99.90
9223;DHT22;7557;51.698;3.942;2023-01-01T12:39:47;12.80;99.90
9223;DHT22;7557;51.698;3.942;2023-01-01T12:42:22;12.80;99.90
9223;DHT22;7557;51.698;3.942;2023-01-01T12:45:09;12.80;99.90
9223;DHT22;7557;51.698;3.942;2023-01-01T12:47:46;12.80;99.90
9223;DHT22;7557;51.698;3.942;2023-01-01T12:50:22;12.80;99.90
9223;DHT22;7557;51.698;3.942;2023-01-01T12:52:59;12.80;99.90
9223;DHT22;7557;51.698;3.942;2023-01-01T12:56:02;12.90;99.90
9223;DHT22;7557;51.698;3.942;2023-01-01T12:58:32;12.90;99.90
9223;DHT22;7557;51.698;3.942;2023-01-01T13:01:05;12.90;99.90
9223;DHT22;7557;51.698;3.942;2023-01-01T13:03:38;12.90;99.90
9223;DHT22;7557;51.698;3.942;2023-01-01T13:06:11;12.90;99.90
9223;DHT22;7557;51.698;3.942;2023-01-01T13:08:40;12.90;99.90
9223;DHT22;7557;51.698;3.942;2023-01-01T13:11:08;13.00;99.90
9223;DHT22;7557;51.698;3.942;2023-01-01T13:13:36;13.00;99.90
9223;DHT22;7557;51.698;3.942;2023-01-01T13:16:04;13.00;99.90
9223;DHT22;7557;51.698;3.942;2023-01-01T13:18:32;13.00;99.90
9223;DHT22;7557;51.698;3.942;2023-01-01T13:21:04;13.00;99.90
9223;DHT22;7557;51.698;3.942;2023-01-01T13:23:49;13.00;99.90
9223;DHT22;7557;51.698;3.942;2023-01-01T13:26:33;13.00;99.90
9223;DHT22;7557;51.698;3.942;2023-01-01T13:29:34;13.00;99.90
9223;DHT22;7557;51.698;3.942;2023-01-01T13:32:09;13.00;99.90
9223;DHT22;7557;51.698;3.942;2023-01-01T13:34:45;13.00;99.90
9223;DHT22;7557;51.698;3.942;2023-01-01T13:37:28;13.00;99.90
9223;DHT22;7557;51.698;3.942;2023-01-01T13:39:56;13.00;99.90
9223;DHT22;7557;51.698;3.942;2023-01-01T13:42:40;13.00;99.90
9223;DHT22;7557;51.698;3.942;2023-01-01T13:45:14;13.00;99.90
9223;DHT22;7557;51.698;3.942;2023-01-01T13:48:01;13.00;99.90
9223;DHT22;7557;51.698;3.942;2023-01-01T13:50:38;13.00;99.90
9223;DHT22;7557;51.698;3.942;2023-01-01T13:53:21;13.00;99.90
9223;DHT22;7557;51.698;3.942;2023-01-01T13:59:04;13.00;99.90
9223;DHT22;7557;51.698;3.942;2023-01-01T14:01:44;13.00;99.90
9223;DHT22;7557;51.698;3.942;2023-01-01T14:04:30;13.00;99.90
9223;DHT22;7557;51.698;3.942;2023-01-01T14:07:00;13.00;99.90
9223;DHT22;7557;51.698;3.942;2023-01-01T14:09:30;13.00;99.90
9223;DHT22;7557;51.698;3.942;2023-01-01T14:12:08;13.00;99.90
9223;DHT22;7557;51.698;3.942;2023-01-01T14:14:35;13.00;99.90
9223;DHT22;7557;51.698;3.942;2023-01-01T14:17:06;13.00;99.90
9223;DHT22;7557;51.698;3.942;2023-01-01T14:19:34;13.00;99.90
9223;DHT22;7557;51.698;3.942;2023-01-01T14:22:05;13.00;99.90
9223;DHT22;7557;51.698;3.942;2023-01-01T14:24:37;12.90;99.90
9223;DHT22;7557;51.698;3.942;2023-01-01T14:27:05;12.90;99.90
9223;DHT22;7557;51.698;3.942;2023-01-01T14:29:32;12.90;99.90
9223;DHT22;7557;51.698;3.942;2023-01-01T14:32:11;12.90;99.90
9223;DHT22;7557;51.698;3.942;2023-01-01T14:34:39;12.90;99.90
9223;DHT22;7557;51.698;3.942;2023-01-01T14:37:20;12.90;99.90
9223;DHT22;7557;51.698;3.942;2023-01-01T14:40:04;12.90;99.90
9223;DHT22;7557;51.698;3.942;2023-01-01T14:42:33;12.90;99.90
9223;DHT22;7557;51.698;3.942;2023-01-01T14:45:02;12.90;99.90
9223;DHT22;7557;51.698;3.942;2023-01-01T14:47:31;12.90;99.90
9223;DHT22;7557;51.698;3.942;2023-01-01T14:50:02;12.90;99.90
9223;DHT22;7557;51.698;3.942;2023-01-01T14:52:31;12.90;99.90
9223;DHT22;7557;51.698;3.942;2023-01-01T14:55:04;12.80;99.90
9223;DHT22;7557;51.698;3.942;2023-01-01T14:57:34;12.80;99.90
9223;DHT22;7557;51.698;3.942;2023-01-01T15:00:06;12.80;99.90
9223;DHT22;7557;51.698;3.942;2023-01-01T15:02:40;12.80;99.90
9223;DHT22;7557;51.698;3.942;2023-01-01T15:05:27;12.80;99.90
9223;DHT22;7557;51.698;3.942;2023-01-01T15:07:55;12.80;99.90
9223;DHT22;7557;51.698;3.942;2023-01-01T15:10:26;12.80;99.90
9223;DHT22;7557;51.698;3.942;2023-01-01T15:12:54;12.80;99.90
9223;DHT22;7557;51.698;3.942;2023-01-01T15:15:38;12.80;99.90
9223;DHT22;7557;51.698;3.942;2023-01-01T15:18:15;12.80;99.90
9223;DHT22;7557;51.698;3.942;2023-01-01T15:20:58;12.80;99.90
9223;DHT22;7557;51.698;3.942;2023-01-01T15:23:25;12.80;99.90
9223;DHT22;7557;51.698;3.942;2023-01-01T15:25:54;12.80;99.90
9223;DHT22;7557;51.698;3.942;2023-01-01T15:28:21;12.80;99.90
9223;DHT22;7557;51.698;3.942;2023-01-01T15:30:52;12.80;99.90
9223;DHT22;7557;51.698;3.942;2023-01-01T15:33:20;12.80;99.90
9223;DHT22;7557;51.698;3.942;2023-01-01T15:35:49;12.80;99.90
9223;DHT22;7557;51.698;3.942;2023-01-01T15:38:19;12.80;99.90
9223;DHT22;7557;51.698;3.942;2023-01-01T15:40:47;12.80;99.90
9223;DHT22;7557;51.698;3.942;2023-01-01T15:43:19;12.80;99.90
9223;DHT22;7557;51.698;3.942;2023-01-01T15:45:54;12.80;99.90
9223;DHT22;7557;51.698;3.942;2023-01-01T15:48:29;12.70;99.90
9223;DHT22;7557;51.698;3.942;2023-01-01T15:51:03;12.70;99.90
9223;DHT22;7557;51.698;3.942;2023-01-01T15:53:39;12.70;99.90
9223;DHT22;7557;51.698;3.942;2023-01-01T15:56:12;12.70;99.90
9223;DHT22;7557;51.698;3.942;2023-01-01T15:58:45;12.70;99.90
9223;DHT22;7557;51.698;3.942;2023-01-01T16:01:18;12.70;99.90
9223;DHT22;7557;51.698;3.942;2023-01-01T16:03:48;12.80;99.90
9223;DHT22;7557;51.698;3.942;2023-01-01T16:06:18;12.70;99.90
9223;DHT22;7557;51.698;3.942;2023-01-01T16:08:46;12.80;99.90
9223;DHT22;7557;51.698;3.942;2023-01-01T16:11:13;12.70;99.90
9223;DHT22;7557;51.698;3.942;2023-01-01T16:13:41;12.70;99.90
9223;DHT22;7557;51.698;3.942;2023-01-01T16:16:24;12.70;99.90
9223;DHT22;7557;51.698;3.942;2023-01-01T16:18:52;12.80;99.90
9223;DHT22;7557;51.698;3.942;2023-01-01T16:21:22;12.70;99.90
9223;DHT22;7557;51.698;3.942;2023-01-01T16:23:50;12.70;99.90
9223;DHT22;7557;51.698;3.942;2023-01-01T16:26:17;12.70;99.90
9223;DHT22;7557;51.698;3.942;2023-01-01T16:28:45;12.70;99.90
9223;DHT22;7557;51.698;3.942;2023-01-01T16:31:14;12.70;99.90
9223;DHT22;7557;51.698;3.942;2023-01-01T16:33:44;12.70;99.90
9223;DHT22;7557;51.698;3.942;2023-01-01T16:36:12;12.70;99.90
9223;DHT22;7557;51.698;3.942;2023-01-01T16:38:39;12.70;99.90